createdAt,value
2023-01-21T00:00:01.278Z,999.13
2023-01-21T00:01:01.175Z,999.12
2023-01-21T00:02:01.213Z,999.15
2023-01-21T00:03:01.105Z,999.11
2023-01-21T00:04:01.089Z,999.15
2023-01-21T00:05:01.067Z,999.13
2023-01-21T00:06:01.046Z,999.14
2023-01-21T00:07:01.003Z,999.17
2023-01-21T00:08:02.653Z,999.18
2023-01-21T00:09:00.951Z,999.19
2023-01-21T00:10:00.923Z,999.20
2023-01-21T00:11:00.899Z,999.22
2023-01-21T00:12:00.899Z,999.22
2023-01-21T00:13:00.850Z,999.24
2023-01-21T00:14:00.850Z,999.27
2023-01-21T00:15:00.784Z,999.30
2023-01-21T00:16:00.893Z,999.28
2023-01-21T00:17:00.732Z,999.30
2023-01-21T00:18:00.718Z,999.32
2023-01-21T00:19:00.673Z,999.29
2023-01-21T00:20:00.668Z,999.29
2023-01-21T00:21:00.651Z,999.30
2023-01-21T00:22:00.596Z,999.29
2023-01-21T00:23:00.569Z,999.27
2023-01-21T00:24:00.553Z,999.30
2023-01-21T00:25:00.519Z,999.32
2023-01-21T00:26:00.520Z,999.33
2023-01-21T00:27:00.482Z,999.30
2023-01-21T00:28:00.448Z,999.31
2023-01-21T00:29:00.425Z,999.31
2023-01-21T00:30:00.390Z,999.31
2023-01-21T00:31:00.483Z,999.33
2023-01-21T00:32:00.372Z,999.31
2023-01-21T00:33:00.299Z,999.34
2023-01-21T00:34:00.271Z,999.40
2023-01-21T00:35:00.279Z,999.41
2023-01-21T00:36:00.280Z,999.43
2023-01-21T00:37:00.229Z,999.43
2023-01-21T00:38:00.181Z,999.41
2023-01-21T00:39:00.144Z,999.46
2023-01-21T00:40:00.161Z,999.44
2023-01-21T00:41:00.121Z,999.45
2023-01-21T00:42:00.103Z,999.49
2023-01-21T00:43:00.114Z,999.48
2023-01-21T00:44:00.015Z,999.52
2023-01-21T00:44:59.988Z,999.52
2023-01-21T00:45:59.994Z,999.53
2023-01-21T00:46:59.991Z,999.55
2023-01-21T00:47:59.950Z,999.57
2023-01-21T00:48:59.875Z,999.57
2023-01-21T00:49:59.875Z,999.52
2023-01-21T00:50:59.847Z,999.59
2023-01-21T00:51:59.800Z,999.56
2023-01-21T00:52:59.769Z,999.60
2023-01-21T00:53:59.747Z,999.62
2023-01-21T00:54:59.703Z,999.62
2023-01-21T00:55:59.738Z,999.63
2023-01-21T00:56:59.669Z,999.68
2023-01-21T00:57:59.632Z,999.68
2023-01-21T00:58:59.607Z,999.68
2023-01-21T00:59:59.576Z,999.74
2023-01-21T01:00:59.539Z,999.71
2023-01-21T01:01:59.523Z,999.76
2023-01-21T01:02:59.565Z,999.73
2023-01-21T01:03:59.464Z,999.74
2023-01-21T01:04:59.445Z,999.70
2023-01-21T01:05:59.428Z,999.71
2023-01-21T01:06:59.441Z,999.74
2023-01-21T01:07:59.360Z,999.76
2023-01-21T01:08:59.334Z,999.74
2023-01-21T01:09:59.305Z,999.76
2023-01-21T01:10:59.275Z,999.77
2023-01-21T01:11:59.281Z,999.81
2023-01-21T01:12:59.247Z,999.84
2023-01-21T01:13:59.204Z,999.86
2023-01-21T01:15:00.986Z,999.84
2023-01-21T01:15:59.200Z,999.89
2023-01-21T01:16:59.126Z,999.88
2023-01-21T01:17:59.106Z,999.90
2023-01-21T01:18:59.056Z,999.89
2023-01-21T01:19:59.053Z,999.89
2023-01-21T01:20:59.026Z,999.92
2023-01-21T01:21:59.009Z,999.91
2023-01-21T01:22:58.950Z,999.95
2023-01-21T01:23:59.004Z,1000.00
2023-01-21T01:24:58.910Z,999.98
2023-01-21T01:25:58.882Z,1000.00
2023-01-21T01:26:58.850Z,1000.01
2023-01-21T01:27:58.838Z,1000.03
2023-01-21T01:28:58.795Z,1000.05
2023-01-21T01:29:58.776Z,1000.04
2023-01-21T01:30:58.951Z,1000.05
2023-01-21T01:31:58.710Z,1000.01
2023-01-21T01:32:58.684Z,1000.06
2023-01-21T01:33:58.718Z,1000.08
2023-01-21T01:34:58.639Z,1000.09
2023-01-21T01:35:58.600Z,1000.07
2023-01-21T01:36:58.598Z,1000.09
2023-01-21T01:37:58.548Z,1000.13
2023-01-21T01:38:58.537Z,1000.16
2023-01-21T01:39:58.503Z,1000.18
2023-01-21T01:40:58.504Z,1000.15
2023-01-21T01:41:58.445Z,1000.20
2023-01-21T01:42:58.418Z,1000.22
2023-01-21T01:44:02.200Z,1000.23
2023-01-21T01:44:58.367Z,1000.20
2023-01-21T01:45:58.327Z,1000.23
2023-01-21T01:46:58.340Z,1000.29
2023-01-21T01:47:58.360Z,1000.29
2023-01-21T01:48:58.273Z,1000.30
2023-01-21T01:49:58.224Z,1000.28
2023-01-21T01:50:58.235Z,1000.32
2023-01-21T01:51:58.172Z,1000.30
2023-01-21T01:52:58.163Z,1000.29
2023-01-21T01:53:58.119Z,1000.31
2023-01-21T01:54:58.113Z,1000.29
2023-01-21T01:55:58.060Z,1000.32
2023-01-21T01:56:58.042Z,1000.33
2023-01-21T01:57:58.001Z,1000.37
2023-01-21T01:58:57.978Z,1000.40
2023-01-21T01:59:57.983Z,1000.41
2023-01-21T02:00:57.979Z,1000.42
2023-01-21T02:01:57.987Z,1000.41
2023-01-21T02:02:57.931Z,1000.42
2023-01-21T02:03:57.874Z,1000.47
2023-01-21T02:04:57.853Z,1000.45
2023-01-21T02:05:57.783Z,1000.47
2023-01-21T02:06:57.773Z,1000.50
2023-01-21T02:07:57.755Z,1000.55
2023-01-21T02:08:57.732Z,1000.53
2023-01-21T02:09:57.690Z,1000.58
2023-01-21T02:10:57.672Z,1000.57
2023-01-21T02:11:57.643Z,1000.53
2023-01-21T02:12:57.598Z,1000.54
2023-01-21T02:13:57.589Z,1000.56
2023-01-21T02:14:57.558Z,1000.57
2023-01-21T02:15:57.557Z,1000.58
2023-01-21T02:16:57.519Z,1000.59
2023-01-21T02:17:57.541Z,1000.59
2023-01-21T02:18:57.434Z,1000.59
2023-01-21T02:19:57.418Z,1000.61
2023-01-21T02:20:57.386Z,1000.61
2023-01-21T02:21:57.363Z,1000.64
2023-01-21T02:22:57.335Z,1000.65
2023-01-21T02:23:57.307Z,1000.66
2023-01-21T02:24:57.281Z,1000.66
2023-01-21T02:25:57.256Z,1000.66
2023-01-21T02:26:57.224Z,1000.61
2023-01-21T02:27:57.190Z,1000.64
2023-01-21T02:28:57.174Z,1000.64
2023-01-21T02:29:57.135Z,1000.65
2023-01-21T02:30:57.171Z,1000.66
2023-01-21T02:31:57.128Z,1000.67
2023-01-21T02:32:57.055Z,1000.63
2023-01-21T02:33:57.045Z,1000.69
2023-01-21T02:34:57.015Z,1000.69
2023-01-21T02:35:56.977Z,1000.68
2023-01-21T02:36:56.953Z,1000.70
2023-01-21T02:37:56.922Z,1000.69
2023-01-21T02:38:56.908Z,1000.68
2023-01-21T02:39:56.874Z,1000.69
2023-01-21T02:40:56.889Z,1000.71
2023-01-21T02:41:56.838Z,1000.73
2023-01-21T02:42:56.790Z,1000.77
2023-01-21T02:43:56.758Z,1000.72
2023-01-21T02:44:56.732Z,1000.77
2023-01-21T02:45:56.720Z,1000.74
2023-01-21T02:46:56.752Z,1000.75
2023-01-21T02:47:56.671Z,1000.77
2023-01-21T02:48:56.634Z,1000.76
2023-01-21T02:49:56.614Z,1000.78
2023-01-21T02:50:56.594Z,1000.78
2023-01-21T02:51:56.599Z,1000.75
2023-01-21T02:52:56.535Z,1000.80
2023-01-21T02:53:56.483Z,1000.81
2023-01-21T02:54:56.474Z,1000.87
2023-01-21T02:55:56.439Z,1000.85
2023-01-21T02:56:56.410Z,1000.85
2023-01-21T02:57:56.377Z,1000.86
2023-01-21T02:58:56.368Z,1000.90
2023-01-21T02:59:56.322Z,1000.93
2023-01-21T03:00:56.305Z,1000.90
2023-01-21T03:01:56.351Z,1000.93
2023-01-21T03:02:56.276Z,1000.90
2023-01-21T03:03:56.217Z,1000.93
2023-01-21T03:04:56.188Z,1000.90
2023-01-21T03:05:56.190Z,1000.95
2023-01-21T03:06:56.145Z,1000.93
2023-01-21T03:07:56.100Z,1000.92
2023-01-21T03:08:56.125Z,1000.97
2023-01-21T03:09:56.038Z,1000.97
2023-01-21T03:10:56.031Z,1000.94
2023-01-21T03:11:56.015Z,1001.05
2023-01-21T03:12:55.974Z,1001.07
2023-01-21T03:13:55.930Z,1001.08
2023-01-21T03:14:55.933Z,1001.11
2023-01-21T03:15:55.916Z,1001.07
2023-01-21T03:16:55.852Z,1001.11
2023-01-21T03:17:55.839Z,1001.17
2023-01-21T03:18:55.833Z,1001.16
2023-01-21T03:19:55.775Z,1001.16
2023-01-21T03:20:55.743Z,1001.12
2023-01-21T03:21:55.719Z,1001.14
2023-01-21T03:22:55.695Z,1001.12
2023-01-21T03:23:55.662Z,1001.12
2023-01-21T03:24:55.660Z,1001.12
2023-01-21T03:25:55.619Z,1001.13
2023-01-21T03:26:55.600Z,1001.13
2023-01-21T03:27:55.559Z,1001.16
2023-01-21T03:28:55.568Z,1001.14
2023-01-21T03:29:55.497Z,1001.17
2023-01-21T03:30:55.587Z,1001.17
2023-01-21T03:31:55.497Z,1001.18
2023-01-21T03:32:55.433Z,1001.17
2023-01-21T03:33:55.383Z,1001.17
2023-01-21T03:34:55.383Z,1001.19
2023-01-21T03:35:55.376Z,1001.24
2023-01-21T03:36:55.318Z,1001.21
2023-01-21T03:37:55.272Z,1001.19
2023-01-21T03:38:55.246Z,1001.22
2023-01-21T03:39:55.222Z,1001.16
2023-01-21T03:40:55.208Z,1001.18
2023-01-21T03:41:55.155Z,1001.23
2023-01-21T03:42:55.133Z,1001.25
2023-01-21T03:43:55.105Z,1001.25
2023-01-21T03:44:55.078Z,1001.20
2023-01-21T03:45:55.113Z,1001.22
2023-01-21T03:46:55.025Z,1001.23
2023-01-21T03:47:55.003Z,1001.22
2023-01-21T03:48:54.962Z,1001.23
2023-01-21T03:49:55.112Z,1001.30
2023-01-21T03:50:55.315Z,1001.31
2023-01-21T03:51:55.830Z,1001.37
2023-01-21T03:52:54.920Z,1001.28
2023-01-21T03:53:54.831Z,1001.27
2023-01-21T03:54:54.798Z,1001.23
2023-01-21T03:55:54.768Z,1001.35
2023-01-21T03:56:54.754Z,1001.38
2023-01-21T03:57:54.716Z,1001.37
2023-01-21T03:58:54.683Z,1001.39
2023-01-21T03:59:54.658Z,1001.37
2023-01-21T04:00:54.643Z,1001.40
2023-01-21T04:01:54.630Z,1001.38
2023-01-21T04:02:54.583Z,1001.39
2023-01-21T04:03:54.552Z,1001.40
2023-01-21T04:04:54.516Z,1001.47
2023-01-21T04:05:54.487Z,1001.48
2023-01-21T04:06:54.467Z,1001.44
2023-01-21T04:07:54.444Z,1001.50
2023-01-21T04:08:54.404Z,1001.45
2023-01-21T04:09:54.386Z,1001.45
2023-01-21T04:10:54.357Z,1001.49
2023-01-21T04:11:54.342Z,1001.51
2023-01-21T04:12:54.301Z,1001.55
2023-01-21T04:13:54.269Z,1001.54
2023-01-21T04:14:54.239Z,1001.54
2023-01-21T04:15:54.212Z,1001.53
2023-01-21T04:16:54.200Z,1001.51
2023-01-21T04:17:54.174Z,1001.55
2023-01-21T04:18:54.140Z,1001.55
2023-01-21T04:19:54.105Z,1001.58
2023-01-21T04:20:54.306Z,1001.56
2023-01-21T04:21:54.200Z,1001.59
2023-01-21T04:22:54.077Z,1001.60
2023-01-21T04:23:54.081Z,1001.57
2023-01-21T04:24:54.089Z,1001.61
2023-01-21T04:25:53.972Z,1001.57
2023-01-21T04:26:53.968Z,1001.58
2023-01-21T04:27:53.886Z,1001.58
2023-01-21T04:28:53.868Z,1001.58
2023-01-21T04:29:53.868Z,1001.59
2023-01-21T04:30:53.885Z,1001.58
2023-01-21T04:31:53.874Z,1001.53
2023-01-21T04:32:53.757Z,1001.57
2023-01-21T04:33:53.764Z,1001.60
2023-01-21T04:34:53.727Z,1001.58
2023-01-21T04:35:53.663Z,1001.61
2023-01-21T04:36:53.633Z,1001.60
2023-01-21T04:37:53.600Z,1001.59
2023-01-21T04:38:53.577Z,1001.55
2023-01-21T04:39:53.588Z,1001.59
2023-01-21T04:40:53.525Z,1001.62
2023-01-21T04:41:53.537Z,1001.56
2023-01-21T04:42:53.556Z,1001.57
2023-01-21T04:43:53.526Z,1001.57
2023-01-21T04:44:53.411Z,1001.61
2023-01-21T04:45:53.432Z,1001.59
2023-01-21T04:46:53.357Z,1001.63
2023-01-21T04:47:53.325Z,1001.60
2023-01-21T04:48:53.326Z,1001.57
2023-01-21T04:49:53.268Z,1001.61
2023-01-21T04:50:53.290Z,1001.65
2023-01-21T04:51:53.213Z,1001.60
2023-01-21T04:52:53.186Z,1001.63
2023-01-21T04:53:53.153Z,1001.59
2023-01-21T04:54:53.130Z,1001.63
2023-01-21T04:55:53.122Z,1001.62
2023-01-21T04:56:53.076Z,1001.63
2023-01-21T04:57:53.044Z,1001.61
2023-01-21T04:58:53.020Z,1001.61
2023-01-21T04:59:52.989Z,1001.59
2023-01-21T05:00:53.004Z,1001.57
2023-01-21T05:01:52.934Z,1001.58
2023-01-21T05:02:52.903Z,1001.56
2023-01-21T05:03:52.926Z,1001.59
2023-01-21T05:04:52.864Z,1001.56
2023-01-21T05:05:52.832Z,1001.57
2023-01-21T05:06:52.814Z,1001.58
2023-01-21T05:07:52.767Z,1001.55
2023-01-21T05:08:52.732Z,1001.61
2023-01-21T05:09:52.697Z,1001.61
2023-01-21T05:10:52.677Z,1001.60
2023-01-21T05:11:52.643Z,1001.61
2023-01-21T05:12:52.621Z,1001.57
2023-01-21T05:13:52.587Z,1001.61
2023-01-21T05:14:52.561Z,1001.60
2023-01-21T05:15:52.565Z,1001.62
2023-01-21T05:16:52.580Z,1001.65
2023-01-21T05:17:52.481Z,1001.60
2023-01-21T05:18:52.448Z,1001.61
2023-01-21T05:19:52.415Z,1001.60
2023-01-21T05:20:52.404Z,1001.62
2023-01-21T05:21:52.363Z,1001.63
2023-01-21T05:22:52.352Z,1001.65
2023-01-21T05:23:52.299Z,1001.62
2023-01-21T05:24:52.284Z,1001.64
2023-01-21T05:25:52.616Z,1001.64
2023-01-21T05:26:52.300Z,1001.64
2023-01-21T05:27:52.203Z,1001.66
2023-01-21T05:28:52.163Z,1001.62
2023-01-21T05:29:52.141Z,1001.66
2023-01-21T05:30:52.123Z,1001.69
2023-01-21T05:31:52.099Z,1001.70
2023-01-21T05:32:52.052Z,1001.69
2023-01-21T05:33:52.042Z,1001.72
2023-01-21T05:34:51.997Z,1001.75
2023-01-21T05:35:51.964Z,1001.77
2023-01-21T05:36:51.935Z,1001.73
2023-01-21T05:37:51.911Z,1001.75
2023-01-21T05:38:51.887Z,1001.75
2023-01-21T05:39:51.839Z,1001.75
2023-01-21T05:40:51.832Z,1001.77
2023-01-21T05:41:51.792Z,1001.77
2023-01-21T05:42:51.821Z,1001.82
2023-01-21T05:43:51.741Z,1001.78
2023-01-21T05:44:51.710Z,1001.84
2023-01-21T05:45:51.684Z,1001.85
2023-01-21T05:46:51.649Z,1001.92
2023-01-21T05:47:51.687Z,1001.91
2023-01-21T05:48:51.610Z,1001.91
2023-01-21T05:49:51.620Z,1001.93
2023-01-21T05:50:51.648Z,1001.95
2023-01-21T05:51:51.501Z,1001.97
2023-01-21T05:52:51.477Z,1001.98
2023-01-21T05:53:51.452Z,1001.94
2023-01-21T05:55:01.497Z,1001.98
2023-01-21T05:55:51.396Z,1002.00
2023-01-21T05:56:51.359Z,1002.01
2023-01-21T05:57:51.364Z,1002.00
2023-01-21T05:58:51.297Z,1002.03
2023-01-21T05:59:51.284Z,1002.02
2023-01-21T06:00:51.242Z,1002.02
2023-01-21T06:01:51.229Z,1002.08
2023-01-21T06:02:51.184Z,1002.09
2023-01-21T06:03:51.231Z,1002.08
2023-01-21T06:04:51.124Z,1002.08
2023-01-21T06:05:51.116Z,1002.08
2023-01-21T06:06:51.070Z,1002.07
2023-01-21T06:07:51.065Z,1002.11
2023-01-21T06:08:51.065Z,1002.12
2023-01-21T06:09:50.984Z,1002.14
2023-01-21T06:10:51.048Z,1002.11
2023-01-21T06:11:50.943Z,1002.15
2023-01-21T06:12:50.927Z,1002.17
2023-01-21T06:13:51.068Z,1002.19
2023-01-21T06:14:50.833Z,1002.24
2023-01-21T06:15:50.833Z,1002.23
2023-01-21T06:16:50.769Z,1002.26
2023-01-21T06:17:50.748Z,1002.21
2023-01-21T06:18:50.736Z,1002.21
2023-01-21T06:19:50.687Z,1002.28
2023-01-21T06:20:50.656Z,1002.22
2023-01-21T06:21:50.636Z,1002.27
2023-01-21T06:22:50.595Z,1002.25
2023-01-21T06:23:50.584Z,1002.25
2023-01-21T06:24:50.554Z,1002.30
2023-01-21T06:25:51.126Z,1002.28
2023-01-21T06:26:50.487Z,1002.33
2023-01-21T06:27:50.451Z,1002.36
2023-01-21T06:28:50.418Z,1002.34
2023-01-21T06:29:50.401Z,1002.35
2023-01-21T06:30:50.419Z,1002.33
2023-01-21T06:31:50.682Z,1002.28
2023-01-21T06:32:50.306Z,1002.30
2023-01-21T06:33:50.277Z,1002.35
2023-01-21T06:34:50.249Z,1002.34
2023-01-21T06:35:50.242Z,1002.32
2023-01-21T06:36:50.198Z,1002.34
2023-01-21T06:37:50.162Z,1002.34
2023-01-21T06:38:50.128Z,1002.36
2023-01-21T06:39:50.101Z,1002.43
2023-01-21T06:40:50.104Z,1002.44
2023-01-21T06:41:50.047Z,1002.46
2023-01-21T06:42:50.011Z,1002.47
2023-01-21T06:43:49.988Z,1002.53
2023-01-21T06:44:49.953Z,1002.53
2023-01-21T06:45:49.942Z,1002.52
2023-01-21T06:47:00.118Z,1002.49
2023-01-21T06:47:49.863Z,1002.48
2023-01-21T06:48:49.838Z,1002.49
2023-01-21T06:49:49.822Z,1002.54
2023-01-21T06:50:49.832Z,1002.55
2023-01-21T06:51:49.839Z,1002.56
2023-01-21T06:52:49.727Z,1002.54
2023-01-21T06:53:49.691Z,1002.50
2023-01-21T06:54:49.670Z,1002.53
2023-01-21T06:55:49.697Z,1002.50
2023-01-21T06:56:49.629Z,1002.54
2023-01-21T06:57:49.579Z,1002.55
2023-01-21T06:58:49.574Z,1002.54
2023-01-21T06:59:49.513Z,1002.59
2023-01-21T07:00:49.492Z,1002.61
2023-01-21T07:01:49.515Z,1002.61
2023-01-21T07:02:49.556Z,1002.65
2023-01-21T07:03:49.404Z,1002.63
2023-01-21T07:04:49.386Z,1002.65
2023-01-21T07:05:49.341Z,1002.66
2023-01-21T07:06:49.302Z,1002.69
2023-01-21T07:07:49.314Z,1002.70
2023-01-21T07:08:49.240Z,1002.70
2023-01-21T07:09:49.218Z,1002.74
2023-01-21T07:10:49.181Z,1002.74
2023-01-21T07:11:49.174Z,1002.75
2023-01-21T07:12:49.119Z,1002.74
2023-01-21T07:13:49.119Z,1002.73
2023-01-21T07:14:49.065Z,1002.78
2023-01-21T07:15:49.068Z,1002.80
2023-01-21T07:16:49.053Z,1002.81
2023-01-21T07:17:48.992Z,1002.79
2023-01-21T07:18:48.971Z,1002.81
2023-01-21T07:19:48.937Z,1002.83
2023-01-21T07:20:48.923Z,1002.82
2023-01-21T07:22:48.848Z,1002.78
2023-01-21T07:23:48.805Z,1002.79
2023-01-21T07:24:48.785Z,1002.80
2023-01-21T07:25:48.750Z,1002.84
2023-01-21T07:26:48.718Z,1002.81
2023-01-21T07:27:48.713Z,1002.88
2023-01-21T07:28:48.659Z,1002.87
2023-01-21T07:29:48.637Z,1002.90
2023-01-21T07:30:48.651Z,1002.91
2023-01-21T07:31:49.181Z,1002.93
2023-01-21T07:32:48.542Z,1002.94
2023-01-21T07:33:48.539Z,1002.98
2023-01-21T07:34:48.512Z,1002.98
2023-01-21T07:35:48.452Z,1002.99
2023-01-21T07:36:48.417Z,1002.98
2023-01-21T07:37:48.547Z,1002.98
2023-01-21T07:38:48.367Z,1003.00
2023-01-21T07:39:48.340Z,1003.00
2023-01-21T07:40:48.304Z,1003.03
2023-01-21T07:41:48.333Z,1003.02
2023-01-21T07:42:48.250Z,1003.03
2023-01-21T07:43:48.223Z,1003.05
2023-01-21T07:44:48.205Z,1003.02
2023-01-21T07:45:48.176Z,1003.03
2023-01-21T07:46:48.246Z,1002.99
2023-01-21T07:47:48.116Z,1003.02
2023-01-21T07:48:48.086Z,1003.06
2023-01-21T07:49:48.049Z,1003.03
2023-01-21T07:50:48.067Z,1003.04
2023-01-21T07:51:47.990Z,1003.07
2023-01-21T07:52:47.960Z,1003.14
2023-01-21T07:53:47.943Z,1003.14
2023-01-21T07:54:47.906Z,1003.16
2023-01-21T07:55:47.994Z,1003.17
2023-01-21T07:56:47.857Z,1003.20
2023-01-21T07:57:48.284Z,1003.19
2023-01-21T07:58:47.786Z,1003.21
2023-01-21T07:59:47.766Z,1003.26
2023-01-21T08:00:47.734Z,1003.24
2023-01-21T08:01:47.794Z,1003.22
2023-01-21T08:02:47.707Z,1003.26
2023-01-21T08:03:47.653Z,1003.29
2023-01-21T08:04:47.620Z,1003.26
2023-01-21T08:05:47.602Z,1003.31
2023-01-21T08:06:47.559Z,1003.25
2023-01-21T08:07:47.544Z,1003.28
2023-01-21T08:08:47.533Z,1003.28
2023-01-21T08:09:47.490Z,1003.27
2023-01-21T08:10:47.448Z,1003.32
2023-01-21T08:11:47.419Z,1003.30
2023-01-21T08:12:47.396Z,1003.29
2023-01-21T08:13:47.367Z,1003.28
2023-01-21T08:14:47.355Z,1003.28
2023-01-21T08:15:47.324Z,1003.29
2023-01-21T08:16:47.284Z,1003.32
2023-01-21T08:17:47.257Z,1003.29
2023-01-21T08:18:47.225Z,1003.27
2023-01-21T08:19:47.196Z,1003.27
2023-01-21T08:20:47.180Z,1003.24
2023-01-21T08:21:47.138Z,1003.29
2023-01-21T08:22:47.131Z,1003.30
2023-01-21T08:23:47.244Z,1003.26
2023-01-21T08:24:47.068Z,1003.28
2023-01-21T08:25:47.054Z,1003.26
2023-01-21T08:26:47.065Z,1003.31
2023-01-21T08:27:47.061Z,1003.30
2023-01-21T08:28:46.937Z,1003.29
2023-01-21T08:29:46.957Z,1003.30
2023-01-21T08:30:46.964Z,1003.32
2023-01-21T08:31:46.906Z,1003.32
2023-01-21T08:32:46.923Z,1003.34
2023-01-21T08:33:46.811Z,1003.36
2023-01-21T08:34:46.775Z,1003.37
2023-01-21T08:35:46.781Z,1003.36
2023-01-21T08:36:46.719Z,1003.42
2023-01-21T08:37:46.707Z,1003.41
2023-01-21T08:38:48.636Z,1003.45
2023-01-21T08:39:46.661Z,1003.44
2023-01-21T08:40:46.623Z,1003.44
2023-01-21T08:41:46.655Z,1003.49
2023-01-21T08:42:46.632Z,1003.47
2023-01-21T08:43:46.562Z,1003.50
2023-01-21T08:44:46.521Z,1003.49
2023-01-21T08:45:46.506Z,1003.55
2023-01-21T08:46:46.456Z,1003.55
2023-01-21T08:47:46.556Z,1003.54
2023-01-21T08:49:46.362Z,1003.60
2023-01-21T08:50:46.364Z,1003.60
2023-01-21T08:51:46.311Z,1003.63
2023-01-21T08:52:46.289Z,1003.66
2023-01-21T08:53:46.380Z,1003.68
2023-01-21T08:54:46.239Z,1003.66
2023-01-21T08:55:46.239Z,1003.69
2023-01-21T08:56:46.205Z,1003.69
2023-01-21T08:57:46.151Z,1003.67
2023-01-21T08:58:46.120Z,1003.65
2023-01-21T08:59:46.089Z,1003.71
2023-01-21T09:00:46.187Z,1003.69
2023-01-21T09:01:46.076Z,1003.66
2023-01-21T09:02:45.994Z,1003.72
2023-01-21T09:03:45.974Z,1003.74
2023-01-21T09:04:45.966Z,1003.73
2023-01-21T09:05:45.935Z,1003.73
2023-01-21T09:06:45.913Z,1003.70
2023-01-21T09:07:45.871Z,1003.72
2023-01-21T09:08:45.832Z,1003.75
2023-01-21T09:09:45.858Z,1003.80
2023-01-21T09:10:45.826Z,1003.85
2023-01-21T09:11:45.758Z,1003.83
2023-01-21T09:12:45.734Z,1003.84
2023-01-21T09:13:45.730Z,1003.88
2023-01-21T09:14:45.668Z,1003.89
2023-01-21T09:15:45.642Z,1003.88
2023-01-21T09:16:45.683Z,1003.92
2023-01-21T09:17:45.606Z,1003.93
2023-01-21T09:18:45.576Z,1003.89
2023-01-21T09:19:45.538Z,1003.93
2023-01-21T09:20:45.519Z,1003.92
2023-01-21T09:21:45.495Z,1003.90
2023-01-21T09:22:45.470Z,1003.92
2023-01-21T09:23:45.438Z,1003.89
2023-01-21T09:24:45.397Z,1003.92
2023-01-21T09:25:45.416Z,1003.95
2023-01-21T09:26:45.346Z,1003.93
2023-01-21T09:27:45.315Z,1003.95
2023-01-21T09:28:45.297Z,1003.99
2023-01-21T09:29:45.304Z,1003.98
2023-01-21T09:30:45.304Z,1004.06
2023-01-21T09:31:45.238Z,1004.06
2023-01-21T09:32:45.197Z,1004.07
2023-01-21T09:33:45.188Z,1004.13
2023-01-21T09:34:45.136Z,1004.08
2023-01-21T09:35:45.116Z,1004.12
2023-01-21T09:36:45.116Z,1004.11
2023-01-21T09:37:45.041Z,1004.10
2023-01-21T09:38:45.032Z,1004.10
2023-01-21T09:39:44.986Z,1004.12
2023-01-21T09:40:44.989Z,1004.08
2023-01-21T09:41:45.053Z,1004.10
2023-01-21T09:42:44.898Z,1004.12
2023-01-21T09:43:44.890Z,1004.09
2023-01-21T09:44:44.933Z,1004.09
2023-01-21T09:45:44.859Z,1004.12
2023-01-21T09:46:44.795Z,1004.16
2023-01-21T09:47:44.806Z,1004.13
2023-01-21T09:48:44.744Z,1004.17
2023-01-21T09:49:44.718Z,1004.19
2023-01-21T09:50:44.720Z,1004.16
2023-01-21T09:51:44.662Z,1004.19
2023-01-21T09:52:44.636Z,1004.19
2023-01-21T09:53:44.625Z,1004.20
2023-01-21T09:54:44.597Z,1004.24
2023-01-21T09:55:44.561Z,1004.24
2023-01-21T09:56:44.522Z,1004.27
2023-01-21T09:57:44.538Z,1004.26
2023-01-21T09:58:44.533Z,1004.30
2023-01-21T09:59:44.490Z,1004.27
2023-01-21T10:00:44.433Z,1004.29
2023-01-21T10:01:44.436Z,1004.27
2023-01-21T10:02:44.367Z,1004.25
2023-01-21T10:03:44.343Z,1004.25
2023-01-21T10:04:44.349Z,1004.24
2023-01-21T10:05:44.283Z,1004.22
2023-01-21T10:06:44.273Z,1004.19
2023-01-21T10:07:44.317Z,1004.21
2023-01-21T10:08:44.221Z,1004.20
2023-01-21T10:09:44.184Z,1004.23
2023-01-21T10:10:44.169Z,1004.25
2023-01-21T10:11:46.208Z,1004.21
2023-01-21T10:12:44.123Z,1004.26
2023-01-21T10:13:46.779Z,1004.27
2023-01-21T10:14:44.051Z,1004.27
2023-01-21T10:16:00.214Z,1004.25
2023-01-21T10:16:44.072Z,1004.30
2023-01-21T10:17:43.967Z,1004.29
2023-01-21T10:18:43.947Z,1004.34
2023-01-21T10:19:43.919Z,1004.30
2023-01-21T10:20:43.891Z,1004.29
2023-01-21T10:21:43.991Z,1004.29
2023-01-21T10:22:43.837Z,1004.31
2023-01-21T10:23:43.807Z,1004.28
2023-01-21T10:24:43.811Z,1004.30
2023-01-21T10:25:43.769Z,1004.32
2023-01-21T10:26:43.738Z,1004.29
2023-01-21T10:27:43.723Z,1004.33
2023-01-21T10:28:43.711Z,1004.36
2023-01-21T10:29:43.688Z,1004.31
2023-01-21T10:30:43.817Z,1004.30
2023-01-21T10:31:43.763Z,1004.30
2023-01-21T10:32:43.580Z,1004.33
2023-01-21T10:33:43.548Z,1004.33
2023-01-21T10:34:43.539Z,1004.29
2023-01-21T10:35:43.540Z,1004.31
2023-01-21T10:36:43.495Z,1004.33
2023-01-21T10:37:43.474Z,1004.34
2023-01-21T10:38:43.441Z,1004.33
2023-01-21T10:39:43.423Z,1004.29
2023-01-21T10:40:43.435Z,1004.33
2023-01-21T10:42:43.346Z,1004.31
2023-01-21T10:43:43.285Z,1004.31
2023-01-21T10:44:43.270Z,1004.31
2023-01-21T10:45:43.304Z,1004.34
2023-01-21T10:46:43.215Z,1004.39
2023-01-21T10:47:43.206Z,1004.34
2023-01-21T10:48:43.181Z,1004.29
2023-01-21T10:49:43.166Z,1004.32
2023-01-21T10:50:43.126Z,1004.33
2023-01-21T10:51:43.104Z,1004.31
2023-01-21T10:52:43.087Z,1004.36
2023-01-21T10:53:43.037Z,1004.33
2023-01-21T10:54:43.003Z,1004.40
2023-01-21T10:55:42.997Z,1004.35
2023-01-21T10:56:42.961Z,1004.38
2023-01-21T10:57:42.938Z,1004.34
2023-01-21T10:58:42.981Z,1004.34
2023-01-21T10:59:42.872Z,1004.35
2023-01-21T11:00:42.862Z,1004.32
2023-01-21T11:01:42.927Z,1004.33
2023-01-21T11:02:42.895Z,1004.34
2023-01-21T11:03:42.776Z,1004.29
2023-01-21T11:04:42.758Z,1004.31
2023-01-21T11:05:42.740Z,1004.32
2023-01-21T11:06:42.704Z,1004.30
2023-01-21T11:07:42.660Z,1004.28
2023-01-21T11:08:42.663Z,1004.31
2023-01-21T11:09:42.671Z,1004.28
2023-01-21T11:10:42.623Z,1004.28
2023-01-21T11:11:42.595Z,1004.29
2023-01-21T11:12:42.537Z,1004.24
2023-01-21T11:13:43.445Z,1004.25
2023-01-21T11:14:42.522Z,1004.30
2023-01-21T11:15:42.484Z,1004.26
2023-01-21T11:16:42.481Z,1004.24
2023-01-21T11:17:42.429Z,1004.23
2023-01-21T11:18:42.381Z,1004.27
2023-01-21T11:19:42.352Z,1004.30
2023-01-21T11:20:42.336Z,1004.25
2023-01-21T11:21:42.298Z,1004.24
2023-01-21T11:22:42.272Z,1004.26
2023-01-21T11:23:42.249Z,1004.23
2023-01-21T11:24:42.235Z,1004.22
2023-01-21T11:25:42.220Z,1004.16
2023-01-21T11:26:42.178Z,1004.18
2023-01-21T11:27:42.144Z,1004.23
2023-01-21T11:28:42.150Z,1004.21
2023-01-21T11:29:42.097Z,1004.22
2023-01-21T11:30:51.126Z,1004.23
2023-01-21T11:31:42.155Z,1004.23
2023-01-21T11:32:42.022Z,1004.19
2023-01-21T11:33:42.021Z,1004.21
2023-01-21T11:34:41.973Z,1004.21
2023-01-21T11:35:41.982Z,1004.21
2023-01-21T11:36:41.919Z,1004.22
2023-01-21T11:37:41.898Z,1004.28
2023-01-21T11:38:41.873Z,1004.27
2023-01-21T11:39:41.846Z,1004.25
2023-01-21T11:40:41.834Z,1004.18
2023-01-21T11:41:41.776Z,1004.18
2023-01-21T11:42:41.753Z,1004.19
2023-01-21T11:43:41.723Z,1004.19
2023-01-21T11:44:41.707Z,1004.17
2023-01-21T11:45:41.756Z,1004.18
2023-01-21T11:46:41.728Z,1004.20
2023-01-21T11:47:41.621Z,1004.17
2023-01-21T11:48:41.651Z,1004.19
2023-01-21T11:49:41.574Z,1004.15
2023-01-21T11:50:41.554Z,1004.16
2023-01-21T11:51:41.516Z,1004.18
2023-01-21T11:52:41.502Z,1004.20
2023-01-21T11:53:42.675Z,1004.20
2023-01-21T11:54:41.436Z,1004.25
2023-01-21T11:55:41.448Z,1004.24
2023-01-21T11:56:41.411Z,1004.27
2023-01-21T11:57:41.369Z,1004.27
2023-01-21T11:58:41.340Z,1004.24
2023-01-21T11:59:41.327Z,1004.14
2023-01-21T12:00:41.552Z,1004.15
2023-01-21T12:01:41.260Z,1004.15
2023-01-21T12:02:41.403Z,1004.16
2023-01-21T12:03:41.279Z,1004.20
2023-01-21T12:04:41.200Z,1004.14
2023-01-21T12:05:41.242Z,1004.15
2023-01-21T12:06:41.155Z,1004.19
2023-01-21T12:07:41.117Z,1004.17
2023-01-21T12:08:41.081Z,1004.15
2023-01-21T12:09:41.080Z,1004.14
2023-01-21T12:10:41.032Z,1004.15